• Join FlightAware (Why Join?)
  • Login
  • US Flag 
03:21PM EST


 

Airport Tracker/Info


-or-


 

Live Flight TrackerFlight Track Log ✈ AWI3778 ✈ 11-Aug-2013 ✈ KBTV - KPHL

Flight Track Log - Related Links

Times and Time Zones

All times are in EDT time to prevent confusion due to time zone crossing. See the AWI3778 flight status page for this flight to view local times or setup timezone preferences in your user account.

Time Position Orientation Groundspeed Altitude Reporting Facility
EDT Latitude Longitude Course Direction KTS MPH feet Rate Location/Type
01:35PM 44.2742 -73.0867 170° South 261 300 7,800  Level Boston Center
01:37PM 44.1972 -73.0683 170° South 280 322 9,900 1,200 Climbing Boston Center
01:38PM 44.0908 -73.0761 183° South 296 341 10,400 1,440 Climbing Boston Center
01:39PM 43.7826 -73.4100 195° South  Level FlightAware Approximate
01:39PM 44.0217 -73.1417 214° Southwest 290 334 12,900  Level Boston Center
01:40PM 43.6846 -73.4462 195° South  Level FlightAware Approximate
01:40PM 43.9525 -73.2131 217° Southwest 303 349 14,800  Level Boston Center
01:41PM 43.8831 -73.2811 215° Southwest 313 360 16,300 1,500 Climbing Boston Center
01:42PM 43.8097 -73.3578 217° Southwest 326 375 17,800 1,440 Climbing Boston Center
01:43PM 43.7361 -73.4286 215° Southwest 326 375 19,200 1,140 Climbing Boston Center
01:44PM 43.6772 -73.4908 217° Southwest 326 375 20,200 1,140 Climbing Boston Center
01:45PM 43.5931 -73.5753 216° Southwest 331 381 21,600 1,200 Climbing Boston Center
01:46PM 43.5194 -73.6483 216° Southwest 336 387 22,700 960 Climbing Boston Center
01:47PM 43.4436 -73.7269 217° Southwest 336 387 23,600 600 Climbing Boston Center
01:48PM 43.3550 -73.8106 214° Southwest 341 392 24,000 180 Climbing Boston Center
01:49PM 43.2789 -73.8889 217° Southwest 346 398 24,000  Level Boston Center
01:50PM 43.2008 -73.9639 215° Southwest 346 398 24,000  Level Boston Center
01:51PM 43.1228 -74.0417 216° Southwest 346 398 24,000  Level Boston Center
01:52PM 43.0467 -74.1164 216° Southwest 346 398 24,000  Level Boston Center
01:53PM 42.9706 -74.1936 217° Southwest 351 404 24,000  Level Boston Center
01:54PM 42.8881 -74.2708 214° Southwest 351 404 24,000  Level Boston Center
01:55PM 42.8136 -74.3478 217° Southwest 351 404 24,000  Level Boston Center
01:56PM 42.7206 -74.4353 215° Southwest 351 404 24,000  Level Boston Center
01:57PM 42.6419 -74.5119 216° Southwest 351 404 24,000  Level Boston Center
01:58PM 42.5636 -74.5881 216° Southwest 351 404 24,000  Level Boston Center
01:59PM 42.4850 -74.6642 216° Southwest 351 404 24,000  Level Boston Center
02:00PM 42.4083 -74.7403 216° Southwest 351 404 24,000 -480 Level Boston Center
02:02PM 42.2667 -74.8733 215° Southwest 346 398 22,800 -900 Descending New York Center
02:03PM 42.1808 -74.9519 214° Southwest 366 421 21,500 -1,380 Descending New York Center
02:04PM 42.0947 -75.0275 213° Southwest 372 428 20,100 -1,320 Descending New York Center
02:05PM 42.0111 -75.1003 213° Southwest 367 422 19,000 -600 Descending New York Center
02:06PM 41.9317 -75.1619 210° Southwest 355 409 19,000  Level New York Center
02:07PM 41.8522 -75.2261 211° Southwest 345 397 19,000 -420 Level New York Center
02:08PM 41.7814 -75.2853 212° Southwest 345 397 18,200 -1,080 Descending New York Center
02:09PM 41.6997 -75.3494 210° Southwest 351 404 16,900 -1,440 Descending New York Center
02:10PM 41.6158 -75.4158 211° Southwest 343 395 15,300 -1,560 Descending New York Center
02:11PM 41.5428 -75.4744 211° Southwest 325 374 13,800 -1,440 Descending New York Center
02:12PM 41.4675 -75.5356 211° Southwest 315 362 12,400 -900 Descending New York Center
02:13PM 41.4031 -75.5864 211° Southwest 315 362 12,000 -240 Descending New York Center
02:14PM 41.3256 -75.6442 209° Southwest 310 357 12,000  Level New York Center
02:15PM 41.2508 -75.6886 204° Southwest 310 357 12,000 -600 Level New York Center
02:16PM 41.1519 -75.6622 169° South 312 359 10,900 -1,020 Descending New York Center
02:17PM 41.0553 -75.6303 166° South 344 396 10,000 -480 Descending New York Center
02:18PM 40.9711 -75.6050 167° South 354 407 10,000  Level New York Center
02:19PM 40.8828 -75.5742 165° South 349 402 10,000  Level New York Center
02:20PM 40.7839 -75.5425 166° South 342 394 10,000  Level New York Center
02:21PM 40.6975 -75.5144 166° South 329 379 10,000 -60 Level New York Center
02:22PM 40.6133 -75.4842 165° South 329 379 9,900 -540 Descending New York Center
02:23PM 40.5331 -75.4594 167° South 309 356 9,000 -480 Descending New York Center
02:24PM 40.4550 -75.4325 165° South 299 344 9,000 -480 Level New York Center
02:25PM 40.3775 -75.3889 157° South 299 344 8,100 -1,020 Descending New York Center
02:26PM 40.3103 -75.3492 156° South 294 338 7,000 -1,080 Descending New York Center
02:27PM 40.2389 -75.3089 157° South 288 331 6,000 -480 Descending New York Center
02:28PM 40.1633 -75.2689 158° South 293 337 6,100 60 Climbing New York Center
02:28PM 40.1167 -75.2333 150° Southeast 281 323 6,100 -60 Level Philadelphia TRACON
02:29PM 40.0500 -75.1833 150° Southeast 220 253 6,000 -60 Descending Philadelphia TRACON
02:30PM 40.0167 -75.1333 131° Southeast 233 268 6,000 -840 Level Philadelphia TRACON
02:31PM 39.9833 -75.0667 123° Southeast 197 227 4,500 -1,620 Descending Philadelphia TRACON
02:32PM 39.9500 -75.0833 201° Southwest 178 205 2,700 -1,380 Descending Philadelphia TRACON
02:33PM 39.9167 -75.1333 229° Southwest 167 192 1,500 -960 Descending Philadelphia TRACON
02:34PM 39.8833 -75.1833 229° Southwest 139 160 800 -720 Descending Philadelphia TRACON